createdAt,value
2023-03-03T00:01:46.850Z,100.00
2023-03-03T00:04:56.418Z,100.00
2023-03-03T00:08:06.840Z,100.00
2023-03-03T00:11:19.642Z,100.00
2023-03-03T00:14:34.682Z,100.00
2023-03-03T00:17:42.749Z,100.00
2023-03-03T00:20:54.702Z,100.00
2023-03-03T00:24:14.713Z,100.00
2023-03-03T00:27:33.418Z,100.00
2023-03-03T00:30:45.907Z,100.00
2023-03-03T00:33:56.132Z,100.00
2023-03-03T00:37:06.384Z,100.00
2023-03-03T00:40:18.046Z,100.00
2023-03-03T00:43:32.756Z,100.00
2023-03-03T00:46:40.551Z,100.00
2023-03-03T00:49:47.748Z,100.00
2023-03-03T00:53:07.372Z,100.00
2023-03-03T00:56:17.574Z,100.00
2023-03-03T00:59:23.068Z,100.00
2023-03-03T01:02:31.206Z,100.00
2023-03-03T01:05:38.259Z,100.00
2023-03-03T01:08:53.425Z,100.00
2023-03-03T01:12:02.760Z,100.00
2023-03-03T01:15:17.328Z,100.00
2023-03-03T01:18:23.115Z,100.00
2023-03-03T01:21:29.922Z,100.00
2023-03-03T01:24:36.941Z,100.00
2023-03-03T01:27:47.792Z,100.00
2023-03-03T01:30:57.114Z,100.00
2023-03-03T01:34:07.312Z,100.00
2023-03-03T01:37:17.897Z,100.00
2023-03-03T01:40:28.134Z,100.00
2023-03-03T01:43:36.758Z,100.00
2023-03-03T01:47:01.476Z,100.00
2023-03-03T01:50:13.587Z,100.00
2023-03-03T01:53:27.372Z,100.00
2023-03-03T01:56:41.032Z,100.00
2023-03-03T01:59:51.669Z,100.00
2023-03-03T02:03:03.344Z,100.00
2023-03-03T02:06:14.998Z,100.00
2023-03-03T02:09:34.939Z,100.00
2023-03-03T02:12:55.648Z,100.00
2023-03-03T02:16:09.993Z,100.00
2023-03-03T02:19:39.637Z,100.00
2023-03-03T02:22:54.927Z,100.00
2023-03-03T02:26:08.197Z,100.00
2023-03-03T02:29:17.604Z,100.00
2023-03-03T02:32:29.261Z,100.00
2023-03-03T02:35:42.151Z,100.00
2023-03-03T02:39:12.658Z,100.00
2023-03-03T02:42:26.960Z,100.00
2023-03-03T02:45:35.658Z,100.00
2023-03-03T02:48:47.263Z,100.00
2023-03-03T02:52:05.124Z,100.00
2023-03-03T02:55:13.867Z,100.00
2023-03-03T02:58:19.768Z,100.00
2023-03-03T03:01:28.310Z,100.00
2023-03-03T03:04:38.720Z,100.00
2023-03-03T03:07:48.476Z,100.00
2023-03-03T03:10:59.339Z,100.00
2023-03-03T03:14:11.361Z,100.00
2023-03-03T03:17:19.630Z,100.00
2023-03-03T03:20:31.703Z,100.00
2023-03-03T03:23:40.135Z,100.00
2023-03-03T03:26:49.134Z,100.00
2023-03-03T03:29:57.203Z,100.00
2023-03-03T03:33:05.055Z,100.00
2023-03-03T03:36:13.269Z,100.00
2023-03-03T03:39:19.656Z,100.00
2023-03-03T03:42:29.652Z,100.00
2023-03-03T03:45:37.276Z,100.00
2023-03-03T03:48:47.155Z,100.00
2023-03-03T03:52:03.619Z,100.00
2023-03-03T03:55:12.787Z,100.00
2023-03-03T03:58:21.236Z,100.00
2023-03-03T04:01:30.228Z,100.00
2023-03-03T04:04:40.846Z,100.00
2023-03-03T04:07:50.405Z,100.00
2023-03-03T04:11:00.595Z,100.00
2023-03-03T04:14:09.519Z,100.00
2023-03-03T04:17:18.328Z,100.00
2023-03-03T04:20:25.806Z,100.00
2023-03-03T04:23:34.859Z,100.00
2023-03-03T04:26:42.802Z,100.00
2023-03-03T04:29:50.913Z,100.00
2023-03-03T04:33:00.978Z,100.00
2023-03-03T04:36:11.814Z,100.00
2023-03-03T04:39:22.485Z,100.00
2023-03-03T04:42:30.422Z,100.00
2023-03-03T04:45:37.121Z,100.00
2023-03-03T04:48:47.465Z,100.00
2023-03-03T04:51:57.421Z,100.00
2023-03-03T04:55:07.437Z,100.00
2023-03-03T04:58:17.258Z,100.00
2023-03-03T05:01:23.872Z,100.00
2023-03-03T05:04:35.347Z,100.00
2023-03-03T05:07:43.421Z,100.00
2023-03-03T05:10:59.486Z,100.00
2023-03-03T05:14:09.270Z,100.00
2023-03-03T05:17:20.898Z,100.00
2023-03-03T05:20:28.791Z,100.00
2023-03-03T05:23:34.808Z,100.00
2023-03-03T05:26:41.130Z,100.00
2023-03-03T05:29:50.860Z,100.00
2023-03-03T05:32:56.492Z,100.00
2023-03-03T05:36:02.132Z,100.00
2023-03-03T05:39:12.807Z,100.00
2023-03-03T05:42:21.268Z,100.00
2023-03-03T05:45:29.360Z,100.00
2023-03-03T05:48:36.531Z,100.00
2023-03-03T05:51:48.992Z,100.00
2023-03-03T05:54:55.017Z,100.00
2023-03-03T05:58:01.371Z,100.00
2023-03-03T06:01:06.309Z,100.00
2023-03-03T06:04:13.905Z,100.00
2023-03-03T06:07:18.434Z,100.00
2023-03-03T06:10:23.713Z,100.00
2023-03-03T06:13:31.154Z,100.00
2023-03-03T06:16:36.559Z,100.00
2023-03-03T06:19:42.725Z,100.00
2023-03-03T06:22:49.145Z,100.00
2023-03-03T06:25:53.992Z,100.00
2023-03-03T06:28:58.336Z,100.00
2023-03-03T06:32:05.441Z,100.00
2023-03-03T06:35:10.445Z,100.00
2023-03-03T06:38:14.886Z,100.00
2023-03-03T06:41:19.768Z,100.00
2023-03-03T06:44:24.365Z,100.00
2023-03-03T06:47:29.632Z,100.00
2023-03-03T06:50:33.451Z,100.00
2023-03-03T06:53:36.950Z,100.00
2023-03-03T06:56:41.447Z,100.00
2023-03-03T06:59:45.574Z,100.00
2023-03-03T07:02:54.548Z,100.00
2023-03-03T07:06:00.168Z,100.00
2023-03-03T07:09:10.510Z,100.00
2023-03-03T07:12:23.014Z,100.00
2023-03-03T07:15:35.728Z,100.00
2023-03-03T07:18:43.181Z,100.00
2023-03-03T07:21:47.610Z,100.00
2023-03-03T07:24:56.551Z,100.00
2023-03-03T07:28:17.723Z,100.00
2023-03-03T07:31:31.436Z,100.00
2023-03-03T07:34:41.150Z,100.00
2023-03-03T07:37:46.833Z,100.00
2023-03-03T07:40:56.710Z,100.00
2023-03-03T07:44:14.105Z,100.00
2023-03-03T07:47:21.272Z,100.00
2023-03-03T07:50:26.389Z,100.00
2023-03-03T07:53:35.928Z,100.00
2023-03-03T07:56:43.390Z,100.00
2023-03-03T07:59:49.967Z,100.00
2023-03-03T08:03:04.075Z,100.00
2023-03-03T08:06:31.068Z,100.00
2023-03-03T08:09:48.998Z,100.00
2023-03-03T08:12:54.556Z,100.00
2023-03-03T08:16:04.917Z,100.00
2023-03-03T08:19:12.456Z,100.00
2023-03-03T08:22:19.039Z,100.00
2023-03-03T08:25:25.887Z,100.00
2023-03-03T08:28:29.944Z,100.00
2023-03-03T08:31:41.335Z,100.00
2023-03-03T08:34:46.607Z,100.00
2023-03-03T08:37:51.527Z,100.00
2023-03-03T08:40:54.803Z,100.00
2023-03-03T08:43:59.181Z,100.00
2023-03-03T08:47:03.104Z,100.00
2023-03-03T08:50:07.603Z,100.00
2023-03-03T08:53:15.237Z,100.00
2023-03-03T08:56:20.152Z,95.56
2023-03-03T08:59:24.270Z,95.53
2023-03-03T09:02:28.849Z,96.48
2023-03-03T09:05:35.009Z,93.90
2023-03-03T09:08:39.467Z,95.18
2023-03-03T09:11:45.366Z,100.00
2023-03-03T09:14:53.697Z,100.00
2023-03-03T09:18:02.042Z,100.00
2023-03-03T09:21:27.234Z,100.00
2023-03-03T09:24:32.151Z,100.00
2023-03-03T09:27:38.149Z,98.12
2023-03-03T09:30:48.331Z,100.00
2023-03-03T09:33:58.114Z,98.21
2023-03-03T09:37:24.270Z,100.00
2023-03-03T09:40:47.688Z,100.00
2023-03-03T09:44:10.405Z,97.26
2023-03-03T09:47:34.922Z,98.64
2023-03-03T09:51:00.343Z,98.47
2023-03-03T09:54:24.411Z,99.46
2023-03-03T09:57:31.892Z,98.16
2023-03-03T10:01:08.904Z,97.25
2023-03-03T10:04:41.256Z,95.07
2023-03-03T10:07:57.112Z,93.38
2023-03-03T10:11:14.085Z,89.12
2023-03-03T10:14:37.115Z,89.68
2023-03-03T10:17:48.593Z,92.27
2023-03-03T10:21:05.780Z,91.62
2023-03-03T10:24:21.645Z,89.62
2023-03-03T10:27:25.303Z,89.23
2023-03-03T10:30:42.685Z,89.13
2023-03-03T10:34:05.260Z,89.44
2023-03-03T10:37:21.451Z,88.19
2023-03-03T10:40:28.726Z,89.39
2023-03-03T10:43:41.156Z,89.35
2023-03-03T10:47:05.273Z,87.28
2023-03-03T10:50:21.552Z,87.71
2023-03-03T10:53:43.611Z,87.58
2023-03-03T10:56:53.570Z,86.51
2023-03-03T11:00:15.425Z,86.34
2023-03-03T11:03:31.242Z,85.91
2023-03-03T11:06:42.318Z,84.15
2023-03-03T11:09:46.702Z,82.93
2023-03-03T11:13:10.162Z,78.53
2023-03-03T11:16:26.697Z,76.24
2023-03-03T11:19:49.402Z,72.68
2023-03-03T11:23:11.480Z,65.62
2023-03-03T11:26:18.927Z,53.94
2023-03-03T11:29:29.994Z,44.06
2023-03-03T11:32:41.088Z,42.96
2023-03-03T11:35:48.604Z,47.05
2023-03-03T11:38:58.713Z,40.55
2023-03-03T11:42:23.792Z,38.78
2023-03-03T11:45:34.979Z,38.64
2023-03-03T11:48:44.597Z,41.24
2023-03-03T11:51:57.085Z,43.69
2023-03-03T11:55:08.791Z,48.04
2023-03-03T11:58:12.964Z,48.33
2023-03-03T12:01:23.770Z,51.04
2023-03-03T12:04:31.529Z,52.01
2023-03-03T12:07:53.944Z,53.59
2023-03-03T12:11:01.300Z,56.81
2023-03-03T12:14:05.467Z,56.60
2023-03-03T12:17:25.350Z,57.48
2023-03-03T12:20:37.500Z,47.53
2023-03-03T12:23:44.972Z,39.40
2023-03-03T12:26:54.961Z,43.10
2023-03-03T12:30:11.684Z,40.45
2023-03-03T12:33:23.032Z,41.41
2023-03-03T12:36:44.785Z,36.41
2023-03-03T12:40:13.184Z,37.08
2023-03-03T12:43:36.455Z,38.59
2023-03-03T12:46:46.289Z,38.21
2023-03-03T12:50:01.229Z,39.33
2023-03-03T12:53:24.757Z,41.58
2023-03-03T12:56:35.300Z,43.64
2023-03-03T13:00:15.973Z,46.64
2023-03-03T13:03:54.986Z,46.21
2023-03-03T13:07:02.812Z,43.66
2023-03-03T13:10:07.539Z,45.10
2023-03-03T13:13:17.856Z,44.69
2023-03-03T13:16:38.929Z,43.33
2023-03-03T13:19:57.763Z,38.88
2023-03-03T13:23:09.491Z,39.51
2023-03-03T13:26:17.494Z,39.61
2023-03-03T13:29:26.311Z,39.40
2023-03-03T13:32:43.395Z,39.59
2023-03-03T13:36:06.161Z,42.02
2023-03-03T13:39:18.488Z,43.95
2023-03-03T13:42:23.093Z,45.80
2023-03-03T13:45:33.363Z,46.53
2023-03-03T13:48:52.850Z,45.38
2023-03-03T13:51:59.287Z,44.30
2023-03-03T13:55:06.797Z,44.29
2023-03-03T13:58:25.258Z,43.03
2023-03-03T14:01:53.856Z,42.60
2023-03-03T14:05:04.887Z,44.76
2023-03-03T14:08:14.253Z,46.18
2023-03-03T14:11:39.766Z,47.25
2023-03-03T14:14:46.280Z,48.46
2023-03-03T14:18:24.469Z,48.25
2023-03-03T14:21:39.705Z,48.89
2023-03-03T14:25:04.754Z,49.19
2023-03-03T14:28:14.333Z,49.95
2023-03-03T14:31:24.648Z,50.01
2023-03-03T14:34:29.512Z,50.04
2023-03-03T14:37:44.260Z,50.28
2023-03-03T14:40:50.134Z,50.50
2023-03-03T14:44:01.339Z,51.17
2023-03-03T14:47:14.521Z,51.07
2023-03-03T14:50:34.269Z,51.55
2023-03-03T14:53:40.160Z,51.11
2023-03-03T14:57:00.489Z,51.86
2023-03-03T15:00:12.844Z,53.05
2023-03-03T15:03:27.228Z,53.98
2023-03-03T15:06:35.568Z,55.92
2023-03-03T15:09:50.873Z,55.67
2023-03-03T15:12:56.336Z,55.24
2023-03-03T15:16:03.182Z,55.63
2023-03-03T15:19:19.999Z,55.92
2023-03-03T15:22:48.198Z,55.93
2023-03-03T15:26:00.640Z,56.49
2023-03-03T15:29:23.802Z,56.45
2023-03-03T15:32:31.210Z,56.85
2023-03-03T15:35:46.547Z,56.87
2023-03-03T15:38:57.251Z,57.49
2023-03-03T15:42:08.602Z,56.54
2023-03-03T15:45:17.755Z,56.84
2023-03-03T15:48:41.851Z,57.29
2023-03-03T15:52:02.892Z,57.18
2023-03-03T15:55:17.117Z,57.54
2023-03-03T15:58:24.730Z,57.75
2023-03-03T16:01:33.362Z,57.93
2023-03-03T16:04:46.614Z,58.38
2023-03-03T16:08:00.944Z,59.03
2023-03-03T16:11:17.623Z,59.39
2023-03-03T16:14:40.219Z,60.17
2023-03-03T16:17:55.717Z,59.86
2023-03-03T16:21:27.872Z,60.34
2023-03-03T16:24:36.364Z,61.75
2023-03-03T16:28:01.239Z,62.45
2023-03-03T16:31:13.054Z,61.84
2023-03-03T16:34:22.731Z,62.38
2023-03-03T16:37:59.743Z,61.93
2023-03-03T16:41:07.431Z,62.39
2023-03-03T16:44:15.425Z,64.14
2023-03-03T16:47:20.901Z,64.02
2023-03-03T16:50:30.418Z,63.65
2023-03-03T16:53:50.556Z,64.23
2023-03-03T16:57:03.313Z,64.90
2023-03-03T17:00:12.308Z,66.35
2023-03-03T17:03:21.726Z,67.16
2023-03-03T17:06:38.352Z,67.57
2023-03-03T17:10:00.981Z,69.83
2023-03-03T17:13:18.478Z,70.26
2023-03-03T17:16:39.858Z,70.14
2023-03-03T17:20:04.781Z,69.01
2023-03-03T17:23:26.991Z,69.55
2023-03-03T17:26:49.299Z,70.35
2023-03-03T17:30:00.570Z,72.23
2023-03-03T17:33:16.838Z,73.29
2023-03-03T17:36:29.472Z,68.60
2023-03-03T17:40:00.051Z,69.00
2023-03-03T17:43:17.741Z,69.23
2023-03-03T17:46:45.780Z,69.65
2023-03-03T17:49:52.392Z,67.49
2023-03-03T17:53:05.869Z,66.92
2023-03-03T17:56:29.681Z,67.52
2023-03-03T17:59:49.706Z,68.09
2023-03-03T18:03:13.973Z,69.09
2023-03-03T18:06:28.028Z,70.10
2023-03-03T18:09:53.657Z,68.90
2023-03-03T18:13:07.372Z,67.78
2023-03-03T18:16:22.761Z,67.56
2023-03-03T18:19:39.900Z,68.21
2023-03-03T18:22:47.495Z,67.69
2023-03-03T18:26:05.179Z,68.93
2023-03-03T18:29:20.535Z,68.51
2023-03-03T18:32:42.070Z,66.36
2023-03-03T18:35:51.893Z,66.56
2023-03-03T18:39:04.442Z,65.24
2023-03-03T18:42:11.717Z,62.72
2023-03-03T18:45:21.404Z,61.55
2023-03-03T18:48:47.044Z,60.89
2023-03-03T18:52:18.769Z,59.03
2023-03-03T18:55:26.028Z,59.02
2023-03-03T18:58:36.249Z,60.55
2023-03-03T19:01:46.353Z,60.32
2023-03-03T19:04:56.544Z,60.19
2023-03-03T19:08:21.412Z,59.69
2023-03-03T19:11:35.505Z,60.14
2023-03-03T19:14:47.110Z,60.45
2023-03-03T19:17:59.293Z,60.77
2023-03-03T19:21:20.893Z,60.75
2023-03-03T19:24:28.973Z,62.27
2023-03-03T19:27:59.267Z,61.24
2023-03-03T19:31:05.991Z,61.48
2023-03-03T19:34:20.839Z,60.75
2023-03-03T19:37:31.666Z,61.15
2023-03-03T19:40:47.170Z,61.20
2023-03-03T19:44:07.990Z,61.78
2023-03-03T19:47:24.860Z,62.02
2023-03-03T19:50:38.863Z,63.74
2023-03-03T19:54:07.206Z,64.02
2023-03-03T19:57:21.884Z,65.48
2023-03-03T20:00:33.317Z,66.22
2023-03-03T20:03:44.216Z,68.55
2023-03-03T20:06:56.686Z,68.00
2023-03-03T20:10:22.959Z,67.48
2023-03-03T20:13:42.114Z,68.14
2023-03-03T20:16:58.182Z,67.32
2023-03-03T20:20:05.757Z,67.79
2023-03-03T20:23:28.898Z,67.17
2023-03-03T20:26:46.142Z,67.49
2023-03-03T20:30:16.468Z,67.81
2023-03-03T20:33:41.060Z,67.07
2023-03-03T20:36:52.748Z,68.15
2023-03-03T20:40:08.523Z,67.66
2023-03-03T20:43:18.852Z,68.12
2023-03-03T20:46:35.418Z,69.54
2023-03-03T20:50:08.022Z,70.61
2023-03-03T20:53:24.879Z,72.02
2023-03-03T20:56:51.514Z,73.41
2023-03-03T21:00:04.334Z,74.69
2023-03-03T21:03:28.518Z,74.49
2023-03-03T21:06:42.952Z,75.63
2023-03-03T21:09:56.955Z,75.90
2023-03-03T21:13:21.786Z,77.17
2023-03-03T21:16:31.667Z,77.41
2023-03-03T21:19:38.349Z,76.66
2023-03-03T21:22:46.336Z,76.98
2023-03-03T21:25:56.081Z,77.75
2023-03-03T21:29:04.902Z,78.13
2023-03-03T21:32:14.048Z,78.45
2023-03-03T21:35:24.920Z,78.70
2023-03-03T21:38:34.159Z,79.30
2023-03-03T21:41:55.728Z,80.63
2023-03-03T21:45:10.593Z,79.48
2023-03-03T21:48:18.954Z,79.03
2023-03-03T21:51:27.076Z,79.91
2023-03-03T21:54:33.570Z,80.50
2023-03-03T21:57:39.821Z,79.89
2023-03-03T22:00:47.383Z,80.46
2023-03-03T22:03:53.638Z,81.62
2023-03-03T22:07:02.806Z,82.96
2023-03-03T22:10:11.716Z,84.58
2023-03-03T22:13:20.755Z,85.38
2023-03-03T22:16:26.514Z,86.17
2023-03-03T22:19:36.884Z,86.97
2023-03-03T22:22:44.563Z,87.79
2023-03-03T22:25:53.669Z,88.76
2023-03-03T22:29:02.665Z,88.88
2023-03-03T22:32:12.148Z,89.86
2023-03-03T22:35:19.315Z,89.34
2023-03-03T22:38:25.626Z,90.38
2023-03-03T22:41:30.939Z,90.32
2023-03-03T22:44:38.153Z,91.04
2023-03-03T22:47:43.958Z,91.48
2023-03-03T22:50:48.164Z,92.31
2023-03-03T22:53:57.993Z,92.82
2023-03-03T22:57:05.968Z,93.23
2023-03-03T23:00:13.670Z,93.48
2023-03-03T23:03:21.504Z,93.75
2023-03-03T23:06:27.703Z,94.35
2023-03-03T23:09:36.534Z,95.73
2023-03-03T23:12:42.097Z,97.50
2023-03-03T23:15:46.994Z,99.51
2023-03-03T23:18:54.083Z,100.00
2023-03-03T23:22:01.864Z,100.00
2023-03-03T23:25:07.071Z,100.00
2023-03-03T23:28:11.039Z,100.00
2023-03-03T23:31:16.425Z,100.00
2023-03-03T23:34:20.264Z,100.00
2023-03-03T23:37:30.076Z,100.00
2023-03-03T23:40:36.276Z,100.00
2023-03-03T23:43:44.190Z,100.00
2023-03-03T23:46:49.843Z,100.00
2023-03-03T23:49:59.979Z,100.00
2023-03-03T23:53:08.332Z,100.00
2023-03-03T23:56:16.556Z,100.00
2023-03-03T23:59:21.688Z,100.00
